sensor_id;sensor_type;location;lat;lon;timestamp;temperature;humidity
774;DHT22;370;48.810;9.150;2023-01-04T00:01:42;3.10;45.90
774;DHT22;370;48.810;9.150;2023-01-04T00:04:09;3.10;47.10
774;DHT22;370;48.810;9.150;2023-01-04T00:06:36;3.10;45.90
774;DHT22;370;48.810;9.150;2023-01-04T00:09:02;3.10;45.90
774;DHT22;370;48.810;9.150;2023-01-04T00:11:29;3.20;47.20
774;DHT22;370;48.810;9.150;2023-01-04T00:13:57;3.20;47.10
774;DHT22;370;48.810;9.150;2023-01-04T00:16:26;3.20;47.40
774;DHT22;370;48.810;9.150;2023-01-04T00:18:54;3.20;46.50
774;DHT22;370;48.810;9.150;2023-01-04T00:21:22;3.20;46.50
774;DHT22;370;48.810;9.150;2023-01-04T00:23:51;3.20;45.90
774;DHT22;370;48.810;9.150;2023-01-04T00:26:21;3.20;45.90
774;DHT22;370;48.810;9.150;2023-01-04T00:28:51;3.20;46.40
774;DHT22;370;48.810;9.150;2023-01-04T00:31:20;3.20;47.50
774;DHT22;370;48.810;9.150;2023-01-04T00:33:48;3.20;46.90
774;DHT22;370;48.810;9.150;2023-01-04T00:36:15;3.20;46.10
774;DHT22;370;48.810;9.150;2023-01-04T00:38:41;3.20;45.90
774;DHT22;370;48.810;9.150;2023-01-04T00:41:09;3.20;45.90
774;DHT22;370;48.810;9.150;2023-01-04T00:43:36;3.20;45.90
774;DHT22;370;48.810;9.150;2023-01-04T00:46:04;3.20;45.90
774;DHT22;370;48.810;9.150;2023-01-04T00:48:37;3.30;47.40
774;DHT22;370;48.810;9.150;2023-01-04T00:51:04;3.30;48.90
774;DHT22;370;48.810;9.150;2023-01-04T00:53:31;3.40;50.40
774;DHT22;370;48.810;9.150;2023-01-04T00:56:00;3.40;51.00
774;DHT22;370;48.810;9.150;2023-01-04T00:58:27;3.40;50.60
774;DHT22;370;48.810;9.150;2023-01-04T01:00:54;3.50;51.40
774;DHT22;370;48.810;9.150;2023-01-04T01:03:20;3.50;51.20
774;DHT22;370;48.810;9.150;2023-01-04T01:05:48;3.50;53.00
774;DHT22;370;48.810;9.150;2023-01-04T01:08:15;3.50;52.70
774;DHT22;370;48.810;9.150;2023-01-04T01:10:51;3.50;51.90
774;DHT22;370;48.810;9.150;2023-01-04T01:13:18;3.50;51.10
774;DHT22;370;48.810;9.150;2023-01-04T01:15:45;3.60;51.10
774;DHT22;370;48.810;9.150;2023-01-04T01:18:12;3.60;49.90
774;DHT22;370;48.810;9.150;2023-01-04T01:20:42;3.50;49.90
774;DHT22;370;48.810;9.150;2023-01-04T01:23:12;3.50;49.60
774;DHT22;370;48.810;9.150;2023-01-04T01:25:39;3.60;49.80
774;DHT22;370;48.810;9.150;2023-01-04T01:28:06;3.60;48.80
774;DHT22;370;48.810;9.150;2023-01-04T01:30:33;3.60;47.30
774;DHT22;370;48.810;9.150;2023-01-04T01:33:04;3.60;46.80
774;DHT22;370;48.810;9.150;2023-01-04T01:35:31;3.60;46.30
774;DHT22;370;48.810;9.150;2023-01-04T01:37:58;3.60;46.30
774;DHT22;370;48.810;9.150;2023-01-04T01:40:26;3.60;47.70
774;DHT22;370;48.810;9.150;2023-01-04T01:42:53;3.60;48.40
774;DHT22;370;48.810;9.150;2023-01-04T01:45:28;3.60;48.70
774;DHT22;370;48.810;9.150;2023-01-04T01:48:00;3.60;47.00
774;DHT22;370;48.810;9.150;2023-01-04T01:50:32;3.60;46.70
774;DHT22;370;48.810;9.150;2023-01-04T01:53:00;3.50;46.20
774;DHT22;370;48.810;9.150;2023-01-04T01:55:30;3.50;44.40
774;DHT22;370;48.810;9.150;2023-01-04T01:57:59;3.30;44.40
774;DHT22;370;48.810;9.150;2023-01-04T02:00:28;3.40;47.60
774;DHT22;370;48.810;9.150;2023-01-04T02:03:11;3.50;49.30
774;DHT22;370;48.810;9.150;2023-01-04T02:05:41;3.50;49.30
774;DHT22;370;48.810;9.150;2023-01-04T02:08:09;3.50;49.10
774;DHT22;370;48.810;9.150;2023-01-04T02:10:38;3.50;47.20
774;DHT22;370;48.810;9.150;2023-01-04T02:13:08;3.40;46.80
774;DHT22;370;48.810;9.150;2023-01-04T02:21:53;3.50;48.20
774;DHT22;370;48.810;9.150;2023-01-04T02:24:37;3.50;46.90
774;DHT22;370;48.810;9.150;2023-01-04T02:27:40;3.40;46.10
774;DHT22;370;48.810;9.150;2023-01-04T02:33:18;3.30;44.00
774;DHT22;370;48.810;9.150;2023-01-04T02:35:55;3.20;41.90
774;DHT22;370;48.810;9.150;2023-01-04T02:38:27;3.20;42.90
774;DHT22;370;48.810;9.150;2023-01-04T02:41:02;3.20;42.90
774;DHT22;370;48.810;9.150;2023-01-04T02:43:34;3.20;42.00
774;DHT22;370;48.810;9.150;2023-01-04T02:46:25;3.10;41.00
774;DHT22;370;48.810;9.150;2023-01-04T02:48:57;3.10;41.00
774;DHT22;370;48.810;9.150;2023-01-04T02:51:42;3.00;40.80
774;DHT22;370;48.810;9.150;2023-01-04T02:54:11;3.00;40.90
774;DHT22;370;48.810;9.150;2023-01-04T02:56:50;2.90;39.90
774;DHT22;370;48.810;9.150;2023-01-04T02:59:38;2.90;42.60
774;DHT22;370;48.810;9.150;2023-01-04T03:02:23;2.90;42.20
774;DHT22;370;48.810;9.150;2023-01-04T03:05:14;2.90;41.70
774;DHT22;370;48.810;9.150;2023-01-04T03:08:27;2.70;40.60
774;DHT22;370;48.810;9.150;2023-01-04T03:11:00;2.70;43.00
774;DHT22;370;48.810;9.150;2023-01-04T03:13:29;2.60;43.40
774;DHT22;370;48.810;9.150;2023-01-04T03:15:59;2.70;44.90
774;DHT22;370;48.810;9.150;2023-01-04T03:18:28;2.70;44.60
774;DHT22;370;48.810;9.150;2023-01-04T03:21:00;2.60;43.40
774;DHT22;370;48.810;9.150;2023-01-04T03:23:33;2.70;44.30
774;DHT22;370;48.810;9.150;2023-01-04T03:26:20;2.60;43.90
774;DHT22;370;48.810;9.150;2023-01-04T03:29:12;2.60;44.30
774;DHT22;370;48.810;9.150;2023-01-04T03:32:03;2.70;45.50
774;DHT22;370;48.810;9.150;2023-01-04T03:34:49;2.70;45.50
774;DHT22;370;48.810;9.150;2023-01-04T03:37:40;2.70;45.10
774;DHT22;370;48.810;9.150;2023-01-04T03:40:21;2.60;44.20
774;DHT22;370;48.810;9.150;2023-01-04T03:43:11;2.60;45.50
774;DHT22;370;48.810;9.150;2023-01-04T03:46:03;2.60;45.50
774;DHT22;370;48.810;9.150;2023-01-04T03:48:55;2.60;44.50
774;DHT22;370;48.810;9.150;2023-01-04T03:51:25;2.60;46.10
774;DHT22;370;48.810;9.150;2023-01-04T03:53:58;2.60;45.50
774;DHT22;370;48.810;9.150;2023-01-04T03:56:29;2.60;46.20
774;DHT22;370;48.810;9.150;2023-01-04T03:58:56;2.70;48.90
774;DHT22;370;48.810;9.150;2023-01-04T04:01:24;2.90;52.40
774;DHT22;370;48.810;9.150;2023-01-04T04:03:52;3.10;53.30
774;DHT22;370;48.810;9.150;2023-01-04T04:06:36;3.20;55.50
774;DHT22;370;48.810;9.150;2023-01-04T04:09:22;3.40;55.70
774;DHT22;370;48.810;9.150;2023-01-04T04:11:49;3.60;56.20
774;DHT22;370;48.810;9.150;2023-01-04T04:14:16;3.80;56.10
774;DHT22;370;48.810;9.150;2023-01-04T04:16:42;3.90;55.00
774;DHT22;370;48.810;9.150;2023-01-04T04:19:09;4.10;53.50
774;DHT22;370;48.810;9.150;2023-01-04T04:21:36;4.20;51.70
774;DHT22;370;48.810;9.150;2023-01-04T04:24:03;4.30;49.70
774;DHT22;370;48.810;9.150;2023-01-04T04:26:31;4.40;49.50
774;DHT22;370;48.810;9.150;2023-01-04T04:28:58;4.60;45.40
774;DHT22;370;48.810;9.150;2023-01-04T04:31:25;4.70;44.90
774;DHT22;370;48.810;9.150;2023-01-04T04:33:51;4.70;42.90
774;DHT22;370;48.810;9.150;2023-01-04T04:36:18;4.90;42.40
774;DHT22;370;48.810;9.150;2023-01-04T04:38:45;5.00;39.80
774;DHT22;370;48.810;9.150;2023-01-04T04:41:13;5.10;38.60
774;DHT22;370;48.810;9.150;2023-01-04T04:43:58;5.20;37.70
774;DHT22;370;48.810;9.150;2023-01-04T04:46:25;5.30;35.70
774;DHT22;370;48.810;9.150;2023-01-04T04:48:52;5.20;33.30
774;DHT22;370;48.810;9.150;2023-01-04T04:51:19;5.20;35.60
774;DHT22;370;48.810;9.150;2023-01-04T04:53:45;5.40;32.20
774;DHT22;370;48.810;9.150;2023-01-04T04:56:12;5.40;29.70
774;DHT22;370;48.810;9.150;2023-01-04T04:58:39;5.50;28.40
774;DHT22;370;48.810;9.150;2023-01-04T05:01:07;5.40;27.60
774;DHT22;370;48.810;9.150;2023-01-04T05:03:34;5.50;28.30
774;DHT22;370;48.810;9.150;2023-01-04T05:06:01;5.50;28.30
774;DHT22;370;48.810;9.150;2023-01-04T05:08:28;5.60;28.40
774;DHT22;370;48.810;9.150;2023-01-04T05:10:55;5.80;25.90
774;DHT22;370;48.810;9.150;2023-01-04T05:13:22;5.80;25.40
774;DHT22;370;48.810;9.150;2023-01-04T05:15:49;5.90;24.70
774;DHT22;370;48.810;9.150;2023-01-04T05:18:20;6.00;24.00
774;DHT22;370;48.810;9.150;2023-01-04T05:20:47;6.10;22.60
774;DHT22;370;48.810;9.150;2023-01-04T05:23:15;6.20;22.20
774;DHT22;370;48.810;9.150;2023-01-04T05:25:42;6.30;20.60
774;DHT22;370;48.810;9.150;2023-01-04T05:28:09;6.30;19.80
774;DHT22;370;48.810;9.150;2023-01-04T05:30:37;6.40;19.00
774;DHT22;370;48.810;9.150;2023-01-04T05:33:15;6.40;19.00
774;DHT22;370;48.810;9.150;2023-01-04T05:35:43;6.40;18.50
774;DHT22;370;48.810;9.150;2023-01-04T05:38:10;6.50;17.50
774;DHT22;370;48.810;9.150;2023-01-04T05:40:36;6.60;16.30
774;DHT22;370;48.810;9.150;2023-01-04T05:43:03;6.70;15.30
774;DHT22;370;48.810;9.150;2023-01-04T05:45:30;6.80;14.30
774;DHT22;370;48.810;9.150;2023-01-04T05:47:57;6.90;13.30
774;DHT22;370;48.810;9.150;2023-01-04T05:50:23;7.00;13.40
774;DHT22;370;48.810;9.150;2023-01-04T05:52:51;7.10;13.30
774;DHT22;370;48.810;9.150;2023-01-04T05:55:18;7.10;13.20
774;DHT22;370;48.810;9.150;2023-01-04T05:57:45;7.10;12.70
774;DHT22;370;48.810;9.150;2023-01-04T06:00:13;7.00;12.60
774;DHT22;370;48.810;9.150;2023-01-04T06:02:41;7.10;12.70
774;DHT22;370;48.810;9.150;2023-01-04T06:05:08;7.20;12.70
774;DHT22;370;48.810;9.150;2023-01-04T06:07:36;7.20;11.40
774;DHT22;370;48.810;9.150;2023-01-04T06:10:05;7.30;11.70
774;DHT22;370;48.810;9.150;2023-01-04T06:12:32;7.40;11.00
774;DHT22;370;48.810;9.150;2023-01-04T06:14:59;7.40;11.60
774;DHT22;370;48.810;9.150;2023-01-04T06:17:26;7.50;10.30
774;DHT22;370;48.810;9.150;2023-01-04T06:19:52;7.40;11.30
774;DHT22;370;48.810;9.150;2023-01-04T06:22:20;7.50;10.50
774;DHT22;370;48.810;9.150;2023-01-04T06:24:46;7.60;10.20
774;DHT22;370;48.810;9.150;2023-01-04T06:27:14;7.70;9.60
774;DHT22;370;48.810;9.150;2023-01-04T06:29:41;7.70;8.90
774;DHT22;370;48.810;9.150;2023-01-04T06:32:08;7.70;9.40
774;DHT22;370;48.810;9.150;2023-01-04T06:34:35;7.70;8.40
774;DHT22;370;48.810;9.150;2023-01-04T06:37:01;7.70;7.80
774;DHT22;370;48.810;9.150;2023-01-04T06:39:29;7.80;7.60
774;DHT22;370;48.810;9.150;2023-01-04T06:41:56;7.70;6.90
774;DHT22;370;48.810;9.150;2023-01-04T06:44:24;7.60;7.90
774;DHT22;370;48.810;9.150;2023-01-04T06:46:51;7.70;9.00
774;DHT22;370;48.810;9.150;2023-01-04T06:49:18;7.80;7.90
774;DHT22;370;48.810;9.150;2023-01-04T06:51:44;7.80;7.70
774;DHT22;370;48.810;9.150;2023-01-04T06:54:12;7.80;7.20
774;DHT22;370;48.810;9.150;2023-01-04T06:56:39;7.80;6.10
774;DHT22;370;48.810;9.150;2023-01-04T06:59:06;7.80;6.30
774;DHT22;370;48.810;9.150;2023-01-04T07:01:35;7.70;6.30
774;DHT22;370;48.810;9.150;2023-01-04T07:04:01;7.80;7.00
774;DHT22;370;48.810;9.150;2023-01-04T07:06:28;7.80;6.60
774;DHT22;370;48.810;9.150;2023-01-04T07:08:55;7.90;6.00
774;DHT22;370;48.810;9.150;2023-01-04T07:11:22;7.90;5.50
774;DHT22;370;48.810;9.150;2023-01-04T07:13:48;8.00;6.20
774;DHT22;370;48.810;9.150;2023-01-04T07:16:17;8.00;5.20
774;DHT22;370;48.810;9.150;2023-01-04T07:18:45;7.90;6.40
774;DHT22;370;48.810;9.150;2023-01-04T07:21:12;8.00;5.60
774;DHT22;370;48.810;9.150;2023-01-04T07:23:39;8.10;4.60
774;DHT22;370;48.810;9.150;2023-01-04T07:26:06;8.00;4.50
774;DHT22;370;48.810;9.150;2023-01-04T07:28:32;8.00;4.50
774;DHT22;370;48.810;9.150;2023-01-04T07:31:16;8.10;4.80
774;DHT22;370;48.810;9.150;2023-01-04T07:33:44;8.10;4.60
774;DHT22;370;48.810;9.150;2023-01-04T07:36:14;8.10;5.90
774;DHT22;370;48.810;9.150;2023-01-04T07:38:40;7.90;7.20
774;DHT22;370;48.810;9.150;2023-01-04T07:41:08;7.80;8.80
774;DHT22;370;48.810;9.150;2023-01-04T07:43:34;7.70;13.10
774;DHT22;370;48.810;9.150;2023-01-04T07:46:01;7.60;15.50
774;DHT22;370;48.810;9.150;2023-01-04T07:48:28;7.50;19.10
774;DHT22;370;48.810;9.150;2023-01-04T07:50:56;7.30;22.00
774;DHT22;370;48.810;9.150;2023-01-04T07:53:22;7.30;21.30
774;DHT22;370;48.810;9.150;2023-01-04T07:55:54;7.20;25.90
774;DHT22;370;48.810;9.150;2023-01-04T07:58:21;7.20;26.60
774;DHT22;370;48.810;9.150;2023-01-04T08:00:48;7.30;29.90
774;DHT22;370;48.810;9.150;2023-01-04T08:03:14;7.20;29.40
774;DHT22;370;48.810;9.150;2023-01-04T08:05:41;7.20;25.80
774;DHT22;370;48.810;9.150;2023-01-04T08:08:09;7.10;27.80
774;DHT22;370;48.810;9.150;2023-01-04T08:10:36;7.10;28.20
774;DHT22;370;48.810;9.150;2023-01-04T08:13:02;7.00;27.60
774;DHT22;370;48.810;9.150;2023-01-04T08:15:29;7.00;28.40
774;DHT22;370;48.810;9.150;2023-01-04T08:17:56;7.00;29.70
774;DHT22;370;48.810;9.150;2023-01-04T08:20:23;7.10;32.90
774;DHT22;370;48.810;9.150;2023-01-04T08:22:49;7.20;31.90
774;DHT22;370;48.810;9.150;2023-01-04T08:25:17;7.30;28.30
774;DHT22;370;48.810;9.150;2023-01-04T08:27:44;7.20;25.90
774;DHT22;370;48.810;9.150;2023-01-04T08:30:11;7.20;25.20
774;DHT22;370;48.810;9.150;2023-01-04T08:32:38;7.20;24.10
774;DHT22;370;48.810;9.150;2023-01-04T08:35:05;7.20;25.30
774;DHT22;370;48.810;9.150;2023-01-04T08:37:33;7.20;28.20
774;DHT22;370;48.810;9.150;2023-01-04T08:40:00;7.30;26.50
774;DHT22;370;48.810;9.150;2023-01-04T08:42:28;7.40;26.60
774;DHT22;370;48.810;9.150;2023-01-04T08:44:54;7.40;25.90
774;DHT22;370;48.810;9.150;2023-01-04T08:47:22;7.50;24.90
774;DHT22;370;48.810;9.150;2023-01-04T08:49:49;7.50;21.40
774;DHT22;370;48.810;9.150;2023-01-04T08:52:16;7.40;23.10
774;DHT22;370;48.810;9.150;2023-01-04T08:54:42;7.50;22.00
774;DHT22;370;48.810;9.150;2023-01-04T08:57:09;7.50;19.20
774;DHT22;370;48.810;9.150;2023-01-04T08:59:37;7.50;20.00
774;DHT22;370;48.810;9.150;2023-01-04T09:02:12;7.50;19.40
774;DHT22;370;48.810;9.150;2023-01-04T09:04:44;7.50;18.20
774;DHT22;370;48.810;9.150;2023-01-04T09:07:10;7.50;15.90
774;DHT22;370;48.810;9.150;2023-01-04T09:09:37;7.50;16.00
774;DHT22;370;48.810;9.150;2023-01-04T09:12:04;7.60;14.70
774;DHT22;370;48.810;9.150;2023-01-04T09:14:31;7.60;13.50
774;DHT22;370;48.810;9.150;2023-01-04T09:16:59;7.60;13.70
774;DHT22;370;48.810;9.150;2023-01-04T09:19:26;7.60;15.00
774;DHT22;370;48.810;9.150;2023-01-04T09:21:53;7.70;13.10
774;DHT22;370;48.810;9.150;2023-01-04T09:24:19;7.70;12.20
774;DHT22;370;48.810;9.150;2023-01-04T09:26:46;7.80;13.10
774;DHT22;370;48.810;9.150;2023-01-04T09:29:13;7.90;10.80
774;DHT22;370;48.810;9.150;2023-01-04T09:31:40;8.00;10.10
774;DHT22;370;48.810;9.150;2023-01-04T09:34:08;8.20;10.30
774;DHT22;370;48.810;9.150;2023-01-04T09:36:36;8.30;8.30
774;DHT22;370;48.810;9.150;2023-01-04T09:39:03;8.50;7.70
774;DHT22;370;48.810;9.150;2023-01-04T09:41:34;8.70;7.50
774;DHT22;370;48.810;9.150;2023-01-04T09:44:09;8.80;5.00
774;DHT22;370;48.810;9.150;2023-01-04T09:46:44;8.90;5.00
774;DHT22;370;48.810;9.150;2023-01-04T09:49:17;9.00;3.80
774;DHT22;370;48.810;9.150;2023-01-04T09:51:52;9.00;3.20
774;DHT22;370;48.810;9.150;2023-01-04T09:54:27;9.10;4.20
774;DHT22;370;48.810;9.150;2023-01-04T09:56:56;9.10;3.10
774;DHT22;370;48.810;9.150;2023-01-04T09:59:28;9.30;3.40
774;DHT22;370;48.810;9.150;2023-01-04T10:02:00;9.30;2.40
774;DHT22;370;48.810;9.150;2023-01-04T10:04:39;9.30;2.00
774;DHT22;370;48.810;9.150;2023-01-04T10:07:13;9.30;2.90
774;DHT22;370;48.810;9.150;2023-01-04T10:09:42;9.30;1.80
774;DHT22;370;48.810;9.150;2023-01-04T10:12:21;9.30;1.80
774;DHT22;370;48.810;9.150;2023-01-04T10:14:58;9.30;1.70
774;DHT22;370;48.810;9.150;2023-01-04T10:17:42;9.30;1.80
774;DHT22;370;48.810;9.150;2023-01-04T10:20:37;9.30;2.10
774;DHT22;370;48.810;9.150;2023-01-04T10:23:11;9.30;2.30
774;DHT22;370;48.810;9.150;2023-01-04T10:25:47;9.40;1.80
774;DHT22;370;48.810;9.150;2023-01-04T10:28:28;9.40;1.70
774;DHT22;370;48.810;9.150;2023-01-04T10:31:02;9.40;1.70
774;DHT22;370;48.810;9.150;2023-01-04T10:33:37;9.50;1.70
774;DHT22;370;48.810;9.150;2023-01-04T10:36:16;9.50;2.40
774;DHT22;370;48.810;9.150;2023-01-04T10:38:43;9.50;1.20
774;DHT22;370;48.810;9.150;2023-01-04T10:41:18;9.50;2.40
774;DHT22;370;48.810;9.150;2023-01-04T10:43:58;9.60;2.20
774;DHT22;370;48.810;9.150;2023-01-04T10:46:29;9.70;1.60
774;DHT22;370;48.810;9.150;2023-01-04T10:49:03;9.80;1.40
774;DHT22;370;48.810;9.150;2023-01-04T10:51:38;10.00;1.00
774;DHT22;370;48.810;9.150;2023-01-04T10:54:12;10.20;1.00
774;DHT22;370;48.810;9.150;2023-01-04T10:56:44;10.30;1.00
774;DHT22;370;48.810;9.150;2023-01-04T10:59:17;10.40;1.00
774;DHT22;370;48.810;9.150;2023-01-04T11:01:49;10.40;1.00
774;DHT22;370;48.810;9.150;2023-01-04T11:04:20;10.50;1.00
774;DHT22;370;48.810;9.150;2023-01-04T11:06:54;10.60;1.00
774;DHT22;370;48.810;9.150;2023-01-04T11:09:24;10.50;1.00
774;DHT22;370;48.810;9.150;2023-01-04T11:11:54;10.60;1.00
774;DHT22;370;48.810;9.150;2023-01-04T11:14:22;10.60;1.00
774;DHT22;370;48.810;9.150;2023-01-04T11:16:53;10.70;1.00
774;DHT22;370;48.810;9.150;2023-01-04T11:19:22;10.70;1.00
774;DHT22;370;48.810;9.150;2023-01-04T11:21:53;10.70;1.00
774;DHT22;370;48.810;9.150;2023-01-04T11:24:28;10.80;1.00
774;DHT22;370;48.810;9.150;2023-01-04T11:26:55;10.80;1.00
774;DHT22;370;48.810;9.150;2023-01-04T11:29:28;10.80;1.00
774;DHT22;370;48.810;9.150;2023-01-04T11:31:58;10.90;1.00
774;DHT22;370;48.810;9.150;2023-01-04T11:34:48;10.80;1.00
774;DHT22;370;48.810;9.150;2023-01-04T11:37:26;10.90;1.00
774;DHT22;370;48.810;9.150;2023-01-04T11:40:12;10.80;1.00
774;DHT22;370;48.810;9.150;2023-01-04T11:42:43;10.80;1.00
774;DHT22;370;48.810;9.150;2023-01-04T11:45:20;10.80;1.00
774;DHT22;370;48.810;9.150;2023-01-04T11:47:49;10.80;1.00
774;DHT22;370;48.810;9.150;2023-01-04T11:50:40;11.00;1.00
774;DHT22;370;48.810;9.150;2023-01-04T11:53:30;10.90;1.00
774;DHT22;370;48.810;9.150;2023-01-04T11:56:16;10.90;1.00
774;DHT22;370;48.810;9.150;2023-01-04T11:59:00;10.80;1.00
774;DHT22;370;48.810;9.150;2023-01-04T12:01:28;10.90;1.00
774;DHT22;370;48.810;9.150;2023-01-04T12:03:56;11.00;1.00
774;DHT22;370;48.810;9.150;2023-01-04T12:06:35;11.00;1.00
774;DHT22;370;48.810;9.150;2023-01-04T12:09:04;11.00;1.00
774;DHT22;370;48.810;9.150;2023-01-04T12:11:34;10.90;1.00
774;DHT22;370;48.810;9.150;2023-01-04T12:14:02;10.80;1.00
774;DHT22;370;48.810;9.150;2023-01-04T12:16:40;10.70;1.00
774;DHT22;370;48.810;9.150;2023-01-04T12:19:13;10.80;1.00
774;DHT22;370;48.810;9.150;2023-01-04T12:21:42;10.80;1.00
774;DHT22;370;48.810;9.150;2023-01-04T12:24:15;10.70;1.00
774;DHT22;370;48.810;9.150;2023-01-04T12:26:43;10.80;1.00
774;DHT22;370;48.810;9.150;2023-01-04T12:29:40;10.80;1.00
774;DHT22;370;48.810;9.150;2023-01-04T12:32:42;10.80;1.00
774;DHT22;370;48.810;9.150;2023-01-04T12:38:57;10.70;1.00
774;DHT22;370;48.810;9.150;2023-01-04T12:47:52;10.80;1.00
774;DHT22;370;48.810;9.150;2023-01-04T12:53:57;11.10;1.00
774;DHT22;370;48.810;9.150;2023-01-04T12:59:32;11.20;1.00
774;DHT22;370;48.810;9.150;2023-01-04T13:02:18;11.20;1.00
774;DHT22;370;48.810;9.150;2023-01-04T13:04:47;11.20;1.00
774;DHT22;370;48.810;9.150;2023-01-04T13:07:18;11.20;1.00
774;DHT22;370;48.810;9.150;2023-01-04T13:09:51;11.20;1.00
774;DHT22;370;48.810;9.150;2023-01-04T13:12:39;11.40;1.00
774;DHT22;370;48.810;9.150;2023-01-04T13:15:15;11.40;1.00
774;DHT22;370;48.810;9.150;2023-01-04T13:17:45;11.40;1.00
774;DHT22;370;48.810;9.150;2023-01-04T13:20:16;11.50;1.00
774;DHT22;370;48.810;9.150;2023-01-04T13:22:49;11.60;1.00
774;DHT22;370;48.810;9.150;2023-01-04T13:25:18;11.70;1.00
774;DHT22;370;48.810;9.150;2023-01-04T13:27:59;11.70;1.00
774;DHT22;370;48.810;9.150;2023-01-04T13:30:31;11.70;1.00
774;DHT22;370;48.810;9.150;2023-01-04T13:32:58;11.70;1.00
774;DHT22;370;48.810;9.150;2023-01-04T13:35:33;11.80;1.00
774;DHT22;370;48.810;9.150;2023-01-04T13:38:00;11.80;1.00
774;DHT22;370;48.810;9.150;2023-01-04T13:40:28;11.80;1.00
774;DHT22;370;48.810;9.150;2023-01-04T13:43:10;11.80;1.00
774;DHT22;370;48.810;9.150;2023-01-04T13:46:07;11.80;1.00
774;DHT22;370;48.810;9.150;2023-01-04T13:48:40;11.90;1.00
774;DHT22;370;48.810;9.150;2023-01-04T13:51:15;11.90;1.00
774;DHT22;370;48.810;9.150;2023-01-04T13:53:51;12.00;1.00
774;DHT22;370;48.810;9.150;2023-01-04T13:56:20;12.00;1.00
774;DHT22;370;48.810;9.150;2023-01-04T13:58:47;11.90;1.00
774;DHT22;370;48.810;9.150;2023-01-04T14:01:18;12.00;1.00
774;DHT22;370;48.810;9.150;2023-01-04T14:03:47;11.90;1.00
774;DHT22;370;48.810;9.150;2023-01-04T14:06:28;11.90;1.00
774;DHT22;370;48.810;9.150;2023-01-04T14:09:02;11.90;1.00
774;DHT22;370;48.810;9.150;2023-01-04T14:11:32;11.80;1.00
774;DHT22;370;48.810;9.150;2023-01-04T14:14:21;11.90;1.00
774;DHT22;370;48.810;9.150;2023-01-04T14:16:50;11.80;1.00
774;DHT22;370;48.810;9.150;2023-01-04T14:19:39;11.80;1.00
774;DHT22;370;48.810;9.150;2023-01-04T14:25:35;11.70;1.00
774;DHT22;370;48.810;9.150;2023-01-04T14:28:23;11.60;1.00
774;DHT22;370;48.810;9.150;2023-01-04T14:30:54;11.60;1.00
774;DHT22;370;48.810;9.150;2023-01-04T14:33:24;11.70;1.00
774;DHT22;370;48.810;9.150;2023-01-04T14:36:01;11.60;1.00
774;DHT22;370;48.810;9.150;2023-01-04T14:38:34;11.60;1.00
774;DHT22;370;48.810;9.150;2023-01-04T14:41:10;11.60;1.00
774;DHT22;370;48.810;9.150;2023-01-04T14:43:43;11.60;1.00
774;DHT22;370;48.810;9.150;2023-01-04T14:46:10;11.50;1.00
774;DHT22;370;48.810;9.150;2023-01-04T14:48:37;11.50;1.00
774;DHT22;370;48.810;9.150;2023-01-04T14:51:04;11.50;1.00
774;DHT22;370;48.810;9.150;2023-01-04T14:53:32;11.50;1.00
774;DHT22;370;48.810;9.150;2023-01-04T14:56:00;11.40;1.00
774;DHT22;370;48.810;9.150;2023-01-04T14:58:27;11.30;1.00
774;DHT22;370;48.810;9.150;2023-01-04T15:00:53;11.30;1.00
774;DHT22;370;48.810;9.150;2023-01-04T15:03:20;11.30;1.00
774;DHT22;370;48.810;9.150;2023-01-04T15:05:47;11.30;1.00
774;DHT22;370;48.810;9.150;2023-01-04T15:08:13;11.10;1.00
774;DHT22;370;48.810;9.150;2023-01-04T15:10:41;11.10;1.00
774;DHT22;370;48.810;9.150;2023-01-04T15:13:10;11.10;1.30
774;DHT22;370;48.810;9.150;2023-01-04T15:15:37;11.10;1.40
774;DHT22;370;48.810;9.150;2023-01-04T15:18:04;11.10;1.40
774;DHT22;370;48.810;9.150;2023-01-04T15:20:30;11.10;1.40
774;DHT22;370;48.810;9.150;2023-01-04T15:22:57;11.00;1.90
774;DHT22;370;48.810;9.150;2023-01-04T15:25:24;11.00;2.10
774;DHT22;370;48.810;9.150;2023-01-04T15:27:52;11.00;2.40
774;DHT22;370;48.810;9.150;2023-01-04T15:30:19;10.90;2.70
774;DHT22;370;48.810;9.150;2023-01-04T15:32:51;10.90;3.20
774;DHT22;370;48.810;9.150;2023-01-04T15:35:18;10.80;3.50
774;DHT22;370;48.810;9.150;2023-01-04T15:37:45;10.80;4.00
774;DHT22;370;48.810;9.150;2023-01-04T15:40:14;10.80;4.50
774;DHT22;370;48.810;9.150;2023-01-04T15:42:41;10.80;4.30
774;DHT22;370;48.810;9.150;2023-01-04T15:45:29;10.80;4.40
774;DHT22;370;48.810;9.150;2023-01-04T15:47:56;10.80;5.10
774;DHT22;370;48.810;9.150;2023-01-04T15:50:27;10.80;5.60
774;DHT22;370;48.810;9.150;2023-01-04T15:52:54;10.80;5.60
774;DHT22;370;48.810;9.150;2023-01-04T15:55:21;10.80;5.60
774;DHT22;370;48.810;9.150;2023-01-04T15:57:48;10.80;5.60
774;DHT22;370;48.810;9.150;2023-01-04T16:00:15;10.80;5.60
774;DHT22;370;48.810;9.150;2023-01-04T16:02:43;10.80;5.60
774;DHT22;370;48.810;9.150;2023-01-04T16:05:10;10.80;5.60
774;DHT22;370;48.810;9.150;2023-01-04T16:07:37;10.80;5.60
774;DHT22;370;48.810;9.150;2023-01-04T16:10:04;10.90;5.60
774;DHT22;370;48.810;9.150;2023-01-04T16:12:31;10.90;5.60
774;DHT22;370;48.810;9.150;2023-01-04T16:15:09;10.80;5.60
774;DHT22;370;48.810;9.150;2023-01-04T16:17:36;10.80;6.10
774;DHT22;370;48.810;9.150;2023-01-04T16:20:05;10.90;5.60
774;DHT22;370;48.810;9.150;2023-01-04T16:22:32;10.90;5.60
774;DHT22;370;48.810;9.150;2023-01-04T16:24:59;10.90;5.60
774;DHT22;370;48.810;9.150;2023-01-04T16:27:26;10.90;5.60
774;DHT22;370;48.810;9.150;2023-01-04T16:29:53;10.90;5.50
774;DHT22;370;48.810;9.150;2023-01-04T16:32:20;10.90;5.60
774;DHT22;370;48.810;9.150;2023-01-04T16:34:48;11.00;5.10
774;DHT22;370;48.810;9.150;2023-01-04T16:37:16;11.00;5.10
774;DHT22;370;48.810;9.150;2023-01-04T16:39:43;11.00;5.10
774;DHT22;370;48.810;9.150;2023-01-04T16:42:10;11.00;4.90
774;DHT22;370;48.810;9.150;2023-01-04T16:44:37;10.90;5.60
774;DHT22;370;48.810;9.150;2023-01-04T16:47:04;10.90;5.60
774;DHT22;370;48.810;9.150;2023-01-04T16:49:31;10.90;5.60
774;DHT22;370;48.810;9.150;2023-01-04T16:51:58;11.00;5.30
774;DHT22;370;48.810;9.150;2023-01-04T16:54:26;11.00;5.20
774;DHT22;370;48.810;9.150;2023-01-04T16:56:52;11.00;5.20
774;DHT22;370;48.810;9.150;2023-01-04T16:59:23;11.00;5.40
774;DHT22;370;48.810;9.150;2023-01-04T17:01:50;10.90;5.70
774;DHT22;370;48.810;9.150;2023-01-04T17:04:17;11.00;5.50
774;DHT22;370;48.810;9.150;2023-01-04T17:06:45;11.00;5.00
774;DHT22;370;48.810;9.150;2023-01-04T17:09:14;11.00;4.60
774;DHT22;370;48.810;9.150;2023-01-04T17:11:43;11.00;4.70
774;DHT22;370;48.810;9.150;2023-01-04T17:14:21;11.00;4.70
774;DHT22;370;48.810;9.150;2023-01-04T17:16:49;11.00;4.60
774;DHT22;370;48.810;9.150;2023-01-04T17:19:16;11.00;4.50
774;DHT22;370;48.810;9.150;2023-01-04T17:21:42;11.10;4.50
774;DHT22;370;48.810;9.150;2023-01-04T17:24:09;11.10;4.40
774;DHT22;370;48.810;9.150;2023-01-04T17:26:38;11.10;4.30
774;DHT22;370;48.810;9.150;2023-01-04T17:29:06;11.10;4.40
774;DHT22;370;48.810;9.150;2023-01-04T17:31:35;11.10;4.40
774;DHT22;370;48.810;9.150;2023-01-04T17:34:02;11.20;4.50
774;DHT22;370;48.810;9.150;2023-01-04T17:36:29;11.10;4.10
774;DHT22;370;48.810;9.150;2023-01-04T17:38:57;11.20;4.30
774;DHT22;370;48.810;9.150;2023-01-04T17:41:26;11.10;4.70
774;DHT22;370;48.810;9.150;2023-01-04T17:43:55;11.10;4.30
774;DHT22;370;48.810;9.150;2023-01-04T17:46:28;11.20;4.60
774;DHT22;370;48.810;9.150;2023-01-04T17:48:56;11.20;4.40